Time;durP1;ratioP1;P1;durP2;ratioP2;P2;SDS_P1;SDS_P2;PMS_P1;PMS_P2;Temp;Humidity;BMP_temperature;BMP_pressure;BME280_temperature;BME280_humidity;BME280_pressure;Samples;Min_cycle;Max_cycle;Signal;HPM_P1;HPM_P2
2022/01/23 00:02:13;;;;;;;7.53;5.10;;;6.00;99.90;;;;;;5021923;28;20045;-77
2022/01/23 00:04:39;;;;;;;12.33;5.23;;;6.00;99.90;;;;;;5051152;28;20059;-77
2022/01/23 00:07:08;;;;;;;9.50;4.63;;;6.00;99.90;;;;;;5006347;28;20053;-77
2022/01/23 00:09:34;;;;;;;10.43;5.40;;;6.00;99.90;;;;;;5039443;28;20076;-78
2022/01/23 00:12:05;;;;;;;8.93;5.13;;;6.00;99.90;;;;;;5007401;28;20570;-78
2022/01/23 00:17:20;;;;;;;8.33;5.00;;;6.00;99.90;;;;;;5041924;28;20439;-78
2022/01/23 00:19:52;;;;;;;13.50;5.30;;;6.00;99.90;;;;;;5072138;28;20124;-77
2022/01/23 00:22:21;;;;;;;12.83;5.10;;;6.00;99.90;;;;;;5049023;28;20558;-77
2022/01/23 00:30:28;;;;;;;9.43;5.00;;;6.00;99.90;;;;;;5027004;28;20055;-78
2022/01/23 00:32:56;;;;;;;12.40;5.43;;;5.90;99.90;;;;;;5039366;28;20053;-77
2022/01/23 00:35:22;;;;;;;9.40;4.97;;;6.00;99.90;;;;;;5038751;28;20052;-77
2022/01/23 00:37:48;;;;;;;8.27;4.40;;;6.00;99.90;;;;;;5041995;28;20053;-77
2022/01/23 00:40:14;;;;;;;9.60;5.07;;;6.00;99.90;;;;;;5039057;28;20049;-77
2022/01/23 00:42:40;;;;;;;10.70;4.90;;;5.90;99.90;;;;;;5036386;28;20037;-77
2022/01/23 00:47:38;;;;;;;10.50;4.53;;;5.90;99.90;;;;;;5071637;28;20049;-77
2022/01/23 00:50:04;;;;;;;7.57;4.27;;;5.90;99.90;;;;;;5004245;28;20063;-77
2022/01/23 00:52:30;;;;;;;10.73;5.00;;;6.00;99.90;;;;;;5021738;28;20047;-77
2022/01/23 00:54:57;;;;;;;8.60;5.00;;;6.00;99.90;;;;;;5033248;28;20076;-77
2022/01/23 00:57:23;;;;;;;11.07;5.20;;;5.90;99.90;;;;;;5004030;28;20047;-77
2022/01/23 00:59:49;;;;;;;11.77;5.07;;;5.90;99.90;;;;;;5056351;28;20056;-77
2022/01/23 01:02:14;;;;;;;8.90;4.90;;;5.90;99.90;;;;;;5007859;28;20041;-77
2022/01/23 01:04:40;;;;;;;10.67;5.50;;;5.90;99.90;;;;;;5018357;28;20045;-77
2022/01/23 01:07:06;;;;;;;12.20;5.70;;;5.90;99.90;;;;;;5023986;28;20037;-77
2022/01/23 01:09:32;;;;;;;10.90;5.47;;;5.90;99.90;;;;;;5054592;28;20044;-77
2022/01/23 01:12:02;;;;;;;12.10;4.70;;;5.90;99.90;;;;;;5055476;28;20543;-77
2022/01/23 01:17:05;;;;;;;8.97;5.57;;;5.90;99.90;;;;;;5067996;28;20117;-77
2022/01/23 01:30:43;;;;;;;14.73;5.77;;;5.90;99.90;;;;;;5057755;28;20043;-77
2022/01/23 01:35:59;;;;;;;10.17;5.17;;;5.90;99.90;;;;;;5067476;28;20049;-78
2022/01/23 01:38:25;;;;;;;12.25;5.20;;;5.90;99.90;;;;;;5023827;28;20051;-78
2022/01/23 01:40:51;;;;;;;10.53;5.37;;;5.90;99.90;;;;;;5022315;28;20128;-77
2022/01/23 01:43:17;;;;;;;13.00;6.10;;;5.90;99.90;;;;;;5052793;28;20079;-77
2022/01/23 01:45:44;;;;;;;10.07;5.00;;;5.90;99.90;;;;;;5070504;28;20319;-77
2022/01/23 01:48:13;;;;;;;10.10;5.43;;;5.90;99.90;;;;;;5052916;28;20029;-78
2022/01/23 01:50:44;;;;;;;15.47;5.67;;;5.90;99.90;;;;;;5038060;28;20044;-78
2022/01/23 01:53:12;;;;;;;11.18;5.07;;;5.90;99.90;;;;;;5050646;28;20099;-77
2022/01/23 01:55:49;;;;;;;11.27;4.90;;;5.90;99.90;;;;;;5037898;28;20067;-77
2022/01/23 01:59:07;;;;;;;10.03;5.33;;;5.90;99.90;;;;;;5037651;28;20056;-77
2022/01/23 02:09:28;;;;;;;10.40;5.30;;;5.90;99.90;;;;;;5053641;28;20051;-77
2022/01/23 02:15:10;;;;;;;14.23;5.53;;;5.90;99.90;;;;;;5065588;28;20072;-77
2022/01/23 02:23:27;;;;;;;11.97;5.90;;;5.80;99.90;;;;;;5064903;28;20045;-77
2022/01/23 02:50:57;;;;;;;15.93;5.77;;;5.90;99.90;;;;;;5064997;28;20520;-77
2022/01/23 02:55:48;;;;;;;13.30;5.77;;;5.90;99.90;;;;;;5039438;28;20170;-77
2022/01/23 02:58:17;;;;;;;14.47;5.20;;;5.90;99.90;;;;;;5042414;28;20055;-77
2022/01/23 03:01:04;;;;;;;12.70;5.47;;;5.90;99.90;;;;;;5071478;28;20083;-77
2022/01/23 03:03:35;;;;;;;15.83;6.33;;;5.90;99.90;;;;;;5042628;28;20041;-77
2022/01/23 03:26:15;;;;;;;12.90;6.37;;;5.90;99.90;;;;;;5036936;28;20132;-77
2022/01/23 03:28:28;;;;;;;14.17;6.23;;;5.90;99.90;;;;;;5059283;28;20052;-77
2022/01/23 03:31:42;;;;;;;12.47;6.17;;;5.90;99.90;;;;;;5069488;28;20060;-77
2022/01/23 03:33:41;;;;;;;13.07;6.50;;;5.90;99.90;;;;;;5040804;28;20041;-77
2022/01/23 03:36:07;;;;;;;13.27;6.10;;;5.90;99.90;;;;;;5040241;28;20045;-77
2022/01/23 03:38:33;;;;;;;11.70;6.07;;;5.90;99.90;;;;;;5022592;28;20526;-77
2022/01/23 03:40:58;;;;;;;13.53;6.27;;;5.90;99.90;;;;;;5056428;28;20041;-77
2022/01/23 03:43:31;;;;;;;11.10;6.80;;;5.90;99.90;;;;;;5056863;28;20066;-78
2022/01/23 03:46:22;;;;;;;14.87;5.90;;;5.90;99.90;;;;;;5056054;28;20445;-77
2022/01/23 03:51:21;;;;;;;13.77;6.60;;;5.90;99.90;;;;;;5054065;28;20052;-77
2022/01/23 03:53:47;;;;;;;12.50;6.67;;;5.90;99.90;;;;;;5040666;28;20037;-77
2022/01/23 03:56:14;;;;;;;10.77;6.10;;;5.90;99.90;;;;;;5055913;28;20045;-77
2022/01/23 03:58:40;;;;;;;12.73;6.87;;;5.90;99.90;;;;;;5038389;28;20076;-77
2022/01/23 04:01:06;;;;;;;11.80;6.70;;;5.90;99.90;;;;;;5039501;28;20080;-77
2022/01/23 04:03:35;;;;;;;12.97;5.93;;;5.80;99.90;;;;;;5057405;28;20036;-77
2022/01/23 04:06:01;;;;;;;10.27;5.73;;;5.90;99.90;;;;;;5036874;28;20038;-77
2022/01/23 04:08:26;;;;;;;14.10;5.87;;;5.90;99.90;;;;;;5024803;28;20041;-77
2022/01/23 04:10:53;;;;;;;11.53;5.83;;;5.80;99.90;;;;;;5040512;28;20673;-77
2022/01/23 04:13:25;;;;;;;13.87;6.57;;;5.90;99.90;;;;;;5040845;28;20049;-77
2022/01/23 04:16:12;;;;;;;13.10;6.37;;;5.90;99.90;;;;;;5037913;28;20108;-77
2022/01/23 04:45:28;;;;;;;14.53;6.13;;;5.80;99.90;;;;;;5053425;28;20050;-78
2022/01/23 04:59:47;;;;;;;10.50;6.33;;;5.80;99.90;;;;;;5068339;28;20509;-79
2022/01/23 05:04:34;;;;;;;11.33;6.37;;;5.80;99.90;;;;;;5064909;28;20071;-77
2022/01/23 05:07:06;;;;;;;16.10;6.50;;;5.80;99.90;;;;;;5011022;28;1171920;-78
2022/01/23 05:09:33;;;;;;;9.93;5.90;;;5.80;99.90;;;;;;5070672;28;20114;-78
2022/01/23 05:12:04;;;;;;;10.87;5.90;;;5.80;99.90;;;;;;5037817;28;20079;-78
2022/01/23 05:14:37;;;;;;;13.20;5.82;;;5.80;99.90;;;;;;5038703;28;20112;-78
2022/01/23 05:17:05;;;;;;;10.20;5.93;;;5.80;99.90;;;;;;5048901;28;20040;-77
2022/01/23 05:19:33;;;;;;;15.47;6.00;;;5.80;99.90;;;;;;5056066;28;20492;-78
2022/01/23 05:22:17;;;;;;;11.60;5.60;;;5.80;99.90;;;;;;5021485;28;20041;-78
2022/01/23 05:25:32;;;;;;;10.67;5.20;;;5.80;99.90;;;;;;5036662;28;20691;-77
2022/01/23 05:27:36;;;;;;;11.10;5.57;;;5.80;99.90;;;;;;5060905;28;20083;-77
2022/01/23 05:30:04;;;;;;;11.47;5.50;;;5.80;99.90;;;;;;5034924;28;20045;-78
2022/01/23 05:32:38;;;;;;;10.90;5.30;;;5.80;99.90;;;;;;5038247;28;20072;-76
2022/01/23 05:35:05;;;;;;;8.83;5.13;;;5.80;99.90;;;;;;5022192;28;20041;-78
2022/01/23 05:37:32;;;;;;;9.63;5.30;;;5.80;99.90;;;;;;5072272;28;20053;-77
2022/01/23 05:39:58;;;;;;;11.00;5.23;;;5.80;99.90;;;;;;5038651;28;20052;-78
2022/01/23 05:42:24;;;;;;;10.87;5.43;;;5.80;99.90;;;;;;5029823;28;20515;-78
2022/01/23 05:44:50;;;;;;;9.93;5.13;;;5.80;99.90;;;;;;5052360;28;20177;-77
2022/01/23 05:47:15;;;;;;;11.70;5.73;;;5.70;99.90;;;;;;5034926;28;20073;-77
2022/01/23 05:49:41;;;;;;;12.77;6.30;;;5.80;99.90;;;;;;5053862;28;20045;-78
2022/01/23 05:52:08;;;;;;;12.17;5.90;;;5.80;99.90;;;;;;5054412;28;20053;-79
2022/01/23 05:54:34;;;;;;;12.83;5.87;;;5.80;99.90;;;;;;5053950;28;20084;-77
2022/01/23 05:57:00;;;;;;;12.53;6.00;;;5.80;99.90;;;;;;5019036;28;20056;-81
2022/01/23 05:59:25;;;;;;;13.37;6.57;;;5.80;99.90;;;;;;5021943;28;20049;-78
2022/01/23 06:01:52;;;;;;;12.57;6.13;;;5.80;99.90;;;;;;5038851;28;20051;-77
2022/01/23 06:04:22;;;;;;;15.20;6.77;;;5.80;99.90;;;;;;5050527;28;20045;-79
2022/01/23 06:06:49;;;;;;;13.27;6.77;;;5.80;99.90;;;;;;5041658;28;20053;-78
2022/01/23 06:09:15;;;;;;;16.43;6.93;;;5.80;99.90;;;;;;5054065;28;20049;-80
2022/01/23 06:11:41;;;;;;;12.07;5.77;;;5.80;99.90;;;;;;5042337;28;20041;-77
2022/01/23 06:14:08;;;;;;;13.97;6.70;;;5.80;99.90;;;;;;5018395;28;20048;-78
2022/01/23 06:16:36;;;;;;;9.23;5.67;;;5.80;99.90;;;;;;5037618;28;20068;-78
2022/01/23 06:19:02;;;;;;;18.63;7.03;;;5.80;99.90;;;;;;5053713;28;20040;-78
2022/01/23 06:21:27;;;;;;;18.07;6.83;;;5.80;99.90;;;;;;5053033;28;20079;-78
2022/01/23 06:24:04;;;;;;;13.13;5.93;;;5.70;99.90;;;;;;5053425;28;20061;-79
2022/01/23 06:26:43;;;;;;;11.03;6.37;;;5.80;99.90;;;;;;5037719;28;20072;-79
2022/01/23 06:29:10;;;;;;;11.97;6.30;;;5.80;99.90;;;;;;5050027;28;20049;-78
2022/01/23 06:31:36;;;;;;;11.57;6.70;;;5.80;99.90;;;;;;5041470;28;20036;-78
2022/01/23 06:34:02;;;;;;;11.73;7.40;;;5.80;99.90;;;;;;5037617;28;20045;-79
2022/01/23 06:36:28;;;;;;;12.93;6.07;;;5.80;99.90;;;;;;5038180;28;20045;-79
2022/01/23 06:38:54;;;;;;;11.43;6.27;;;5.80;99.90;;;;;;5024555;28;20053;-78
2022/01/23 06:41:19;;;;;;;10.33;6.20;;;5.80;99.90;;;;;;5021008;28;20076;-78
2022/01/23 06:43:46;;;;;;;11.20;6.07;;;5.80;99.90;;;;;;5037659;28;20037;-78
2022/01/23 06:46:11;;;;;;;13.27;6.37;;;5.90;99.90;;;;;;5038029;28;20060;-78
2022/01/23 06:48:37;;;;;;;11.43;6.20;;;5.80;99.90;;;;;;5039722;28;20037;-78
2022/01/23 06:51:03;;;;;;;9.70;5.63;;;5.80;99.90;;;;;;5017519;28;20049;-77
2022/01/23 06:53:29;;;;;;;9.57;5.87;;;5.80;99.90;;;;;;5049868;28;20044;-78
2022/01/23 06:55:54;;;;;;;10.57;5.87;;;5.80;99.90;;;;;;5054583;28;20060;-78
2022/01/23 06:58:20;;;;;;;10.70;6.47;;;5.80;99.90;;;;;;5053888;28;20590;-79
2022/01/23 07:00:46;;;;;;;12.47;6.23;;;5.80;99.90;;;;;;5020008;28;20048;-78
2022/01/23 07:03:12;;;;;;;10.07;5.80;;;5.80;99.90;;;;;;5024552;28;20413;-77
2022/01/23 07:05:38;;;;;;;11.10;5.83;;;5.70;99.90;;;;;;5069778;28;20057;-78
2022/01/23 07:08:05;;;;;;;12.50;6.67;;;5.80;99.90;;;;;;5060011;28;20131;-78
2022/01/23 07:10:31;;;;;;;11.23;5.93;;;5.80;99.90;;;;;;5022120;28;20051;-79
2022/01/23 07:12:57;;;;;;;11.10;6.50;;;5.80;99.90;;;;;;5068896;28;20041;-79
2022/01/23 07:15:23;;;;;;;13.47;6.80;;;5.80;99.90;;;;;;5037838;28;20068;-80
2022/01/23 07:17:50;;;;;;;11.83;7.17;;;5.70;99.90;;;;;;5017369;28;20037;-78
2022/01/23 07:20:15;;;;;;;12.97;6.57;;;5.70;99.90;;;;;;5036608;28;20105;-79
2022/01/23 07:22:41;;;;;;;11.33;6.03;;;5.80;99.90;;;;;;5052234;28;20061;-78
2022/01/23 07:25:07;;;;;;;13.83;6.70;;;5.80;99.90;;;;;;5022586;28;20041;-79
2022/01/23 07:27:41;;;;;;;12.50;6.93;;;5.80;99.90;;;;;;5053158;28;20520;-79
2022/01/23 07:30:19;;;;;;;11.43;7.00;;;5.80;99.90;;;;;;5021144;28;20482;-78
2022/01/23 07:32:45;;;;;;;13.00;6.47;;;5.80;99.90;;;;;;5054275;28;20045;-77
2022/01/23 07:35:10;;;;;;;11.17;6.27;;;5.70;99.90;;;;;;5085039;28;20040;-78
2022/01/23 07:37:36;;;;;;;11.70;6.80;;;5.80;99.90;;;;;;5024099;28;20044;-76
2022/01/23 07:40:02;;;;;;;9.20;6.00;;;5.80;99.90;;;;;;5072847;28;20041;-79
2022/01/23 07:42:27;;;;;;;10.60;6.47;;;5.80;99.90;;;;;;5057566;28;20076;-79
2022/01/23 07:44:53;;;;;;;12.40;6.63;;;5.80;99.90;;;;;;5040425;28;20076;-79
2022/01/23 07:47:22;;;;;;;10.33;6.37;;;5.80;99.90;;;;;;5056176;28;20045;-79
2022/01/23 07:49:49;;;;;;;14.03;6.70;;;5.80;99.90;;;;;;5024475;28;20049;-78
2022/01/23 07:52:17;;;;;;;13.60;6.37;;;5.80;99.90;;;;;;5072344;28;20057;-78
2022/01/23 07:54:43;;;;;;;12.87;6.60;;;5.80;99.90;;;;;;5056666;28;20087;-79
2022/01/23 07:57:08;;;;;;;10.50;6.73;;;5.80;99.90;;;;;;5039288;28;20108;-78
2022/01/23 07:59:34;;;;;;;12.90;6.43;;;5.90;99.90;;;;;;5039692;28;20178;-78
2022/01/23 08:02:00;;;;;;;12.13;6.07;;;5.90;99.90;;;;;;5054112;28;20045;-78
2022/01/23 08:04:26;;;;;;;10.57;5.87;;;5.90;99.90;;;;;;5055913;28;20083;-76
2022/01/23 08:07:08;;;;;;;11.20;6.13;;;5.90;99.90;;;;;;5053670;28;20049;-76
2022/01/23 08:09:34;;;;;;;11.97;6.90;;;5.90;99.90;;;;;;5053943;28;20060;-78
2022/01/23 08:12:00;;;;;;;9.93;5.87;;;5.90;99.90;;;;;;5039373;28;20314;-75
2022/01/23 08:14:25;;;;;;;10.20;6.00;;;5.90;99.90;;;;;;5054924;28;20048;-75
2022/01/23 08:16:51;;;;;;;12.83;6.03;;;5.90;99.90;;;;;;5021577;28;20041;-74
2022/01/23 08:19:17;;;;;;;11.73;6.60;;;5.90;99.90;;;;;;5063454;28;20044;-76
2022/01/23 08:21:43;;;;;;;11.90;5.93;;;6.00;99.90;;;;;;5009525;28;20353;-75
2022/01/23 08:24:09;;;;;;;10.90;6.07;;;6.00;99.90;;;;;;5005838;28;20045;-76
2022/01/23 08:26:35;;;;;;;9.33;5.43;;;6.00;99.90;;;;;;5038025;28;20047;-76
2022/01/23 08:29:01;;;;;;;10.50;5.93;;;6.00;99.90;;;;;;5025616;28;20057;-76
2022/01/23 08:31:26;;;;;;;10.07;5.83;;;6.00;99.90;;;;;;5024596;28;20094;-76
2022/01/23 08:33:53;;;;;;;10.87;5.70;;;6.00;99.90;;;;;;5022141;28;20110;-76
2022/01/23 08:36:19;;;;;;;11.27;6.10;;;6.10;99.90;;;;;;5024502;28;20068;-76
2022/01/23 08:38:45;;;;;;;7.83;5.20;;;6.10;99.90;;;;;;5037320;28;20045;-76
2022/01/23 08:43:39;;;;;;;7.47;5.10;;;6.10;99.90;;;;;;5038202;28;20504;-75
2022/01/23 08:46:05;;;;;;;9.03;5.10;;;6.10;99.90;;;;;;5037108;28;20045;-76
2022/01/23 08:48:31;;;;;;;8.40;5.00;;;6.20;99.90;;;;;;5037398;28;20041;-76
2022/01/23 08:50:57;;;;;;;9.73;4.40;;;6.20;99.90;;;;;;5005716;28;20052;-76
2022/01/23 08:53:24;;;;;;;11.87;5.37;;;6.20;99.90;;;;;;5041049;28;20356;-76
2022/01/23 08:55:49;;;;;;;8.40;4.23;;;6.30;99.90;;;;;;5007809;28;20108;-76
2022/01/23 08:58:16;;;;;;;7.83;4.27;;;6.30;99.90;;;;;;5041584;28;20075;-76
2022/01/23 09:00:42;;;;;;;9.17;4.33;;;6.30;99.90;;;;;;5020933;28;20527;-76
2022/01/23 09:03:08;;;;;;;7.67;4.07;;;6.30;99.90;;;;;;5007408;28;20056;-76
2022/01/23 09:05:34;;;;;;;7.07;4.50;;;6.40;99.90;;;;;;5065319;28;20052;-75
2022/01/23 09:08:00;;;;;;;8.37;4.20;;;6.40;99.90;;;;;;5055271;28;20057;-76
2022/01/23 09:10:28;;;;;;;7.57;3.83;;;6.40;99.90;;;;;;5037993;28;20040;-76
2022/01/23 09:13:09;;;;;;;6.03;3.77;;;6.40;99.90;;;;;;5038335;28;20484;-76
2022/01/23 09:15:35;;;;;;;5.83;3.83;;;6.50;99.90;;;;;;5023541;28;20045;-76
2022/01/23 09:18:02;;;;;;;6.03;3.70;;;6.50;99.90;;;;;;5053262;28;20045;-76
2022/01/23 09:20:28;;;;;;;5.03;3.23;;;6.50;99.90;;;;;;5037846;28;20037;-76
2022/01/23 09:22:53;;;;;;;4.47;3.00;;;6.50;99.90;;;;;;5020918;28;20053;-76
2022/01/23 09:25:20;;;;;;;4.50;2.90;;;6.50;99.90;;;;;;5027150;28;20033;-76
2022/01/23 09:27:46;;;;;;;4.50;2.93;;;6.50;99.90;;;;;;5027324;28;20040;-76
2022/01/23 09:30:19;;;;;;;5.70;3.47;;;6.60;99.90;;;;;;5019840;28;20145;-76
2022/01/23 09:32:47;;;;;;;5.37;2.87;;;6.60;99.90;;;;;;5025757;28;20033;-76
2022/01/23 09:35:14;;;;;;;5.33;2.67;;;6.60;99.90;;;;;;5036823;28;20099;-76
2022/01/23 09:37:42;;;;;;;5.87;2.93;;;6.60;99.90;;;;;;5040253;28;20324;-75
2022/01/23 09:40:08;;;;;;;5.10;2.93;;;6.70;99.90;;;;;;5070115;28;20041;-76
2022/01/23 09:42:42;;;;;;;9.10;3.47;;;6.80;99.90;;;;;;5036032;28;20052;-76
2022/01/23 09:45:11;;;;;;;5.00;2.87;;;6.80;99.90;;;;;;5070636;28;20076;-76
2022/01/23 09:47:38;;;;;;;3.80;2.33;;;6.80;99.90;;;;;;5048348;28;20036;-76
2022/01/23 09:50:06;;;;;;;3.43;1.93;;;6.80;99.90;;;;;;5035424;28;20044;-76
2022/01/23 09:52:34;;;;;;;4.33;2.40;;;6.90;99.90;;;;;;5034476;28;20094;-76
2022/01/23 09:55:07;;;;;;;3.57;2.10;;;6.90;99.90;;;;;;5045466;28;20037;-76
2022/01/23 09:57:35;;;;;;;7.37;2.23;;;7.00;99.90;;;;;;5037625;28;20049;-76
2022/01/23 10:00:06;;;;;;;3.50;2.30;;;7.00;99.90;;;;;;5039822;28;20066;-76
2022/01/23 10:02:32;;;;;;;3.37;2.10;;;7.00;99.90;;;;;;5036987;28;20045;-76
2022/01/23 10:04:58;;;;;;;4.47;2.33;;;7.00;99.90;;;;;;5020482;28;20040;-76
2022/01/23 10:07:24;;;;;;;2.87;2.37;;;7.10;99.90;;;;;;5020369;28;20055;-76
2022/01/23 10:09:57;;;;;;;3.97;2.53;;;7.10;99.90;;;;;;5019892;28;20041;-76
2022/01/23 10:12:26;;;;;;;4.27;2.13;;;7.10;99.90;;;;;;5019849;28;20054;-76
2022/01/23 10:14:56;;;;;;;3.23;1.90;;;7.20;99.90;;;;;;5047788;28;20049;-76
2022/01/23 10:17:22;;;;;;;4.13;2.20;;;7.20;99.90;;;;;;5036481;28;20068;-76
2022/01/23 10:19:49;;;;;;;3.43;2.20;;;7.20;99.90;;;;;;5070265;28;20056;-76
2022/01/23 10:22:15;;;;;;;2.37;1.70;;;7.20;99.90;;;;;;5020184;28;20373;-76
2022/01/23 10:24:42;;;;;;;3.33;1.30;;;7.30;99.90;;;;;;5052324;28;20048;-76
2022/01/23 10:27:07;;;;;;;6.00;1.80;;;7.30;99.90;;;;;;4996974;28;20128;-78
2022/01/23 10:29:37;;;;;;;1.90;1.30;;;7.30;99.90;;;;;;5009658;28;20088;-76
2022/01/23 10:32:25;;;;;;;1.70;1.10;;;7.40;99.90;;;;;;5034739;28;20049;-76
2022/01/23 10:34:57;;;;;;;1.30;0.90;;;7.40;99.90;;;;;;5052565;28;20656;-76
2022/01/23 10:37:37;;;;;;;2.47;1.05;;;7.40;99.90;;;;;;5044271;28;20048;-76
2022/01/23 10:40:11;;;;;;;1.23;1.00;;;7.40;99.90;;;;;;5069171;28;20056;-76
2022/01/23 10:50:49;;;;;;;1.77;0.90;;;7.40;99.90;;;;;;5052935;28;19971;-78
2022/01/23 10:53:15;;;;;;;0.80;0.80;;;7.40;99.90;;;;;;5020397;28;20051;-76
2022/01/23 10:55:43;;;;;;;1.53;1.10;;;7.50;99.90;;;;;;5043338;28;20139;-76
2022/01/23 10:58:19;;;;;;;2.80;1.13;;;7.50;99.90;;;;;;5031748;28;20063;-78
2022/01/23 11:00:45;;;;;;;1.77;0.80;;;7.50;99.90;;;;;;5034353;28;20064;-76
2022/01/23 11:03:18;;;;;;;1.73;1.00;;;7.50;99.90;;;;;;5033259;28;20092;-75
2022/01/23 11:05:44;;;;;;;0.70;0.50;;;7.50;99.90;;;;;;5044205;28;20066;-75
2022/01/23 11:08:30;;;;;;;2.23;0.80;;;7.50;99.90;;;;;;5022710;28;20045;-76
2022/01/23 11:11:01;;;;;;;1.00;0.50;;;7.50;99.90;;;;;;5071769;28;20049;-76
2022/01/23 11:19:26;;;;;;;1.40;0.70;;;7.50;99.90;;;;;;5038303;28;20056;-76
2022/01/23 11:21:53;;;;;;;0.60;0.60;;;7.50;99.90;;;;;;5043088;28;20501;-75
2022/01/23 11:24:20;;;;;;;1.20;0.50;;;7.50;99.90;;;;;;5041635;28;20079;-76
2022/01/23 11:26:46;;;;;;;1.63;0.50;;;7.50;99.90;;;;;;5023509;28;20053;-76
2022/01/23 11:29:18;;;;;;;0.50;0.50;;;7.50;99.90;;;;;;5036328;28;20484;-76
2022/01/23 11:31:44;;;;;;;0.82;0.50;;;7.40;99.90;;;;;;5032430;28;20076;-76
2022/01/23 11:34:12;;;;;;;0.60;0.50;;;7.40;99.90;;;;;;5015422;28;20068;-76
2022/01/23 11:36:39;;;;;;;1.30;0.47;;;7.40;99.90;;;;;;5039068;28;20041;-75
2022/01/23 11:39:26;;;;;;;2.00;0.50;;;7.40;99.90;;;;;;5039435;28;20049;-76
2022/01/23 11:56:31;;;;;;;2.17;0.80;;;7.30;99.90;;;;;;5063610;28;20488;-75
2022/01/23 11:59:30;;;;;;;1.90;0.63;;;7.30;99.90;;;;;;5039233;28;20045;-76
2022/01/23 12:02:12;;;;;;;0.53;0.40;;;7.30;99.90;;;;;;5039425;28;20059;-75
2022/01/23 12:05:04;;;;;;;1.05;0.50;;;7.30;99.90;;;;;;5055168;28;20118;-76
2022/01/23 12:07:29;;;;;;;0.40;0.40;;;7.30;99.90;;;;;;5046253;28;20056;-76
2022/01/23 12:10:28;;;;;;;0.50;0.50;;;7.40;99.90;;;;;;5005883;28;20041;-75
2022/01/23 12:13:22;;;;;;;0.80;0.80;;;7.30;99.90;;;;;;5061048;28;20060;-76
2022/01/23 12:18:39;;;;;;;1.00;0.50;;;7.30;99.90;;;;;;5059449;28;20045;-75
2022/01/23 12:21:04;;;;;;;1.57;0.57;;;7.30;99.90;;;;;;5054827;28;20080;-76
2022/01/23 12:23:57;;;;;;;0.50;0.50;;;7.30;99.90;;;;;;5027875;28;20053;-76
2022/01/23 12:26:23;;;;;;;1.63;0.70;;;7.30;99.90;;;;;;5038322;28;20044;-76
2022/01/23 12:28:49;;;;;;;1.87;0.70;;;7.30;99.90;;;;;;5039116;28;20041;-75
2022/01/23 12:31:15;;;;;;;0.60;0.60;;;7.40;99.90;;;;;;5028175;28;20055;-75
2022/01/23 12:33:40;;;;;;;0.90;0.60;;;7.40;99.90;;;;;;5038247;28;20053;-75
2022/01/23 12:36:15;;;;;;;0.83;0.40;;;7.40;99.90;;;;;;5038742;28;20052;-75
2022/01/23 12:38:53;;;;;;;0.57;0.50;;;7.40;99.90;;;;;;5059096;28;20048;-75
2022/01/23 12:41:30;;;;;;;0.67;0.43;;;7.40;99.90;;;;;;5042307;28;20132;-76
2022/01/23 12:44:04;;;;;;;0.53;0.40;;;7.40;99.90;;;;;;5038105;28;20140;-75
2022/01/23 12:46:41;;;;;;;1.27;0.83;;;7.40;99.90;;;;;;5037874;28;20060;-76
2022/01/23 12:49:31;;;;;;;1.93;0.90;;;7.40;99.90;;;;;;5038577;28;20061;-76
2022/01/23 12:52:07;;;;;;;0.80;0.80;;;7.40;99.90;;;;;;5036793;28;20052;-76
2022/01/23 12:54:35;;;;;;;1.03;0.90;;;7.40;99.90;;;;;;5042607;28;20051;-75
2022/01/23 12:57:13;;;;;;;1.63;0.93;;;7.40;99.90;;;;;;5042902;28;20100;-75
2022/01/23 12:59:39;;;;;;;1.50;1.10;;;7.40;99.90;;;;;;5040863;28;20041;-76
2022/01/23 13:02:13;;;;;;;2.73;1.37;;;7.40;99.90;;;;;;5028032;28;20059;-76
2022/01/23 13:04:46;;;;;;;4.03;1.90;;;7.40;99.90;;;;;;5087865;28;21235;-76
2022/01/23 13:07:31;;;;;;;3.27;1.20;;;7.40;99.90;;;;;;5045539;28;20527;-75
2022/01/23 13:10:12;;;;;;;2.53;1.20;;;7.40;99.90;;;;;;5038793;28;20053;-76
2022/01/23 13:35:03;;;;;;;3.67;2.07;;;7.30;99.90;;;;;;5050673;28;20065;-76
2022/01/23 13:37:32;;;;;;;3.43;2.03;;;7.30;99.90;;;;;;5037336;28;20056;-76
2022/01/23 13:40:06;;;;;;;2.80;1.70;;;7.30;99.90;;;;;;5036170;28;20041;-76
2022/01/23 13:59:30;;;;;;;3.50;1.60;;;7.20;99.90;;;;;;5046913;28;20053;-76
2022/01/23 14:04:35;;;;;;;1.63;1.20;;;7.20;99.90;;;;;;5086653;28;20049;-76
2022/01/23 14:07:00;;;;;;;2.63;1.50;;;7.20;99.90;;;;;;5056674;28;20299;-76
2022/01/23 14:09:27;;;;;;;3.90;1.63;;;7.20;99.90;;;;;;5018001;28;20097;-76
2022/01/23 14:11:53;;;;;;;2.73;1.27;;;7.10;99.90;;;;;;5036296;28;20041;-75
2022/01/23 14:14:25;;;;;;;1.50;1.00;;;7.10;99.90;;;;;;5036827;28;20049;-75
2022/01/23 14:16:53;;;;;;;2.13;1.67;;;7.10;99.90;;;;;;5036133;28;20052;-76
2022/01/23 14:19:27;;;;;;;2.67;1.30;;;7.10;99.90;;;;;;5042490;28;20040;-76
2022/01/23 14:21:57;;;;;;;2.17;1.30;;;7.10;99.90;;;;;;5035839;28;20056;-76
2022/01/23 14:24:36;;;;;;;1.83;1.10;;;7.10;99.90;;;;;;5040900;28;20049;-76
2022/01/23 14:27:06;;;;;;;2.27;1.23;;;7.10;99.90;;;;;;5053352;28;20055;-75
2022/01/23 14:29:35;;;;;;;1.40;1.20;;;7.10;99.90;;;;;;5039695;28;20045;-75
2022/01/23 14:32:08;;;;;;;1.10;1.00;;;7.10;99.90;;;;;;5037264;28;20049;-75
2022/01/23 14:34:34;;;;;;;1.80;1.33;;;7.10;99.90;;;;;;5025830;28;20060;-75
2022/01/23 14:37:03;;;;;;;1.97;1.40;;;7.10;99.90;;;;;;5020166;28;20048;-76
2022/01/23 14:39:29;;;;;;;1.43;1.10;;;7.00;99.90;;;;;;5036639;28;20044;-75
2022/01/23 14:41:55;;;;;;;2.27;1.20;;;7.00;99.90;;;;;;5040024;28;20123;-75
2022/01/23 14:44:24;;;;;;;1.60;1.40;;;7.00;99.90;;;;;;5021044;28;20037;-76
2022/01/23 14:46:55;;;;;;;2.50;1.30;;;7.00;99.90;;;;;;5039361;28;20053;-76
2022/01/23 14:49:25;;;;;;;2.58;1.20;;;7.00;99.90;;;;;;5039612;28;20445;-76
2022/01/23 14:51:53;;;;;;;2.47;1.30;;;7.00;99.90;;;;;;5039152;28;20468;-76
2022/01/23 14:54:20;;;;;;;2.27;1.60;;;6.90;99.90;;;;;;5073122;28;20049;-76
2022/01/23 14:56:46;;;;;;;3.30;1.73;;;6.90;99.90;;;;;;5040879;28;20044;-75
2022/01/23 14:59:14;;;;;;;2.50;1.43;;;6.90;99.90;;;;;;5023021;28;20251;-76
2022/01/23 15:01:42;;;;;;;3.57;1.70;;;6.90;99.90;;;;;;5039892;28;20033;-76
2022/01/23 15:04:10;;;;;;;2.43;1.70;;;6.90;99.90;;;;;;5039506;28;20567;-76
2022/01/23 15:06:41;;;;;;;3.23;1.90;;;6.90;99.90;;;;;;5026886;28;20130;-76
2022/01/23 15:09:12;;;;;;;2.93;2.07;;;6.90;99.90;;;;;;5043072;28;20094;-76
2022/01/23 15:11:38;;;;;;;3.40;1.70;;;6.90;99.90;;;;;;5040104;28;20080;-76
2022/01/23 15:14:06;;;;;;;2.33;2.00;;;6.90;99.90;;;;;;5023319;28;20049;-76
2022/01/23 15:16:32;;;;;;;3.00;1.83;;;6.90;99.90;;;;;;5023574;28;20048;-76
2022/01/23 15:18:57;;;;;;;5.10;2.20;;;6.90;99.90;;;;;;5026217;28;20121;-76
2022/01/23 15:21:23;;;;;;;2.20;1.70;;;6.90;99.90;;;;;;5044695;28;20045;-76
2022/01/23 15:23:55;;;;;;;4.20;1.93;;;6.90;99.90;;;;;;5008697;28;20053;-77
2022/01/23 15:26:25;;;;;;;3.67;1.85;;;6.90;99.90;;;;;;5057583;28;20056;-76
2022/01/23 15:28:51;;;;;;;3.23;1.93;;;6.90;99.90;;;;;;5032992;28;20045;-76
2022/01/23 15:31:17;;;;;;;3.80;2.03;;;6.90;99.90;;;;;;5040269;28;20099;-76
2022/01/23 15:33:43;;;;;;;2.33;1.80;;;6.80;99.90;;;;;;5040305;28;20045;-76
2022/01/23 15:36:09;;;;;;;2.30;1.90;;;6.80;99.90;;;;;;5006436;28;20049;-76
2022/01/23 15:38:41;;;;;;;1.67;1.47;;;6.80;99.90;;;;;;5022730;28;20045;-76
2022/01/23 15:41:07;;;;;;;3.03;1.83;;;6.80;99.90;;;;;;5054907;28;20037;-76
2022/01/23 15:43:33;;;;;;;3.10;2.23;;;6.80;99.90;;;;;;5038795;28;20041;-78
2022/01/23 15:45:59;;;;;;;2.90;1.70;;;6.80;99.90;;;;;;5039764;28;20049;-75
2022/01/23 15:48:26;;;;;;;2.87;1.90;;;6.70;99.90;;;;;;5035741;28;20108;-77
2022/01/23 15:50:52;;;;;;;4.23;2.30;;;6.70;99.90;;;;;;5040514;28;20076;-78
2022/01/23 15:53:18;;;;;;;2.40;1.97;;;6.70;99.90;;;;;;5038594;28;20052;-77
2022/01/23 15:55:44;;;;;;;3.10;1.87;;;6.70;99.90;;;;;;5037470;28;20067;-76
2022/01/23 15:58:10;;;;;;;2.30;1.90;;;6.70;99.90;;;;;;5022195;28;20139;-76
2022/01/23 16:00:36;;;;;;;1.97;1.60;;;6.70;99.90;;;;;;5023825;28;20100;-77
2022/01/23 16:03:01;;;;;;;4.03;2.13;;;6.70;99.90;;;;;;5022657;28;20159;-77
2022/01/23 16:05:27;;;;;;;4.30;1.90;;;6.70;99.90;;;;;;5038715;28;20592;-77
2022/01/23 16:07:53;;;;;;;3.20;2.00;;;6.70;99.90;;;;;;5022045;28;20088;-76
2022/01/23 16:10:19;;;;;;;3.07;1.90;;;6.70;99.90;;;;;;5006080;28;20040;-76
2022/01/23 16:12:45;;;;;;;1.93;1.60;;;6.60;99.90;;;;;;5040331;28;20059;-76
2022/01/23 16:15:15;;;;;;;3.63;1.73;;;6.70;99.90;;;;;;5041599;28;20049;-76
2022/01/23 16:17:41;;;;;;;3.00;1.80;;;6.70;99.90;;;;;;5031509;28;20540;-76
2022/01/23 16:20:08;;;;;;;3.10;1.90;;;6.60;99.90;;;;;;5006768;28;20051;-76
2022/01/23 16:22:34;;;;;;;3.20;1.90;;;6.60;99.90;;;;;;5026061;28;20142;-76
2022/01/23 16:25:00;;;;;;;6.77;1.70;;;6.60;99.90;;;;;;5073715;28;20061;-76
2022/01/23 16:27:26;;;;;;;2.13;1.93;;;6.60;99.90;;;;;;5006930;28;20033;-77
2022/01/23 16:29:51;;;;;;;2.57;1.67;;;6.70;99.90;;;;;;5020428;28;20088;-76
2022/01/23 16:32:17;;;;;;;3.73;2.10;;;6.60;99.90;;;;;;5021580;28;20072;-76
2022/01/23 16:34:43;;;;;;;2.67;1.93;;;6.60;99.90;;;;;;5037732;28;20041;-77